Time;durP1;ratioP1;P1;durP2;ratioP2;P2;SDS_P1;SDS_P2;PMS_P1;PMS_P2;Temp;Humidity;BMP_temperature;BMP_pressure;BME280_temperature;BME280_humidity;BME280_pressure;Samples;Min_cycle;Max_cycle;Signal;HPM_P1;HPM_P2
2023/03/19 00:01:56;;;;;;;4.10;2.37;;;;;;;;;;5025835;28;20530;-63
2023/03/19 00:04:23;;;;;;;6.40;2.73;;;;;;;;;;4999520;28;20447;-62
2023/03/19 00:06:49;;;;;;;4.70;2.80;;;;;;;;;;5020925;28;20434;-61
2023/03/19 00:09:15;;;;;;;5.47;3.03;;;;;;;;;;5021873;28;20531;-61
2023/03/19 00:11:41;;;;;;;3.50;2.63;;;;;;;;;;5026530;28;20447;-63
2023/03/19 00:14:07;;;;;;;5.90;2.40;;;;;;;;;;5002297;28;20442;-63
2023/03/19 00:16:33;;;;;;;2.40;2.20;;;;;;;;;;5022583;28;20451;-64
2023/03/19 00:18:59;;;;;;;4.50;2.60;;;;;;;;;;5005465;28;20487;-62
2023/03/19 00:21:26;;;;;;;3.27;2.40;;;;;;;;;;4991067;28;20848;-62
2023/03/19 00:23:52;;;;;;;9.00;2.90;;;;;;;;;;5037015;28;20806;-62
2023/03/19 00:26:18;;;;;;;8.43;3.10;;;;;;;;;;4993780;28;21015;-63
2023/03/19 00:28:44;;;;;;;3.83;2.97;;;;;;;;;;4990974;28;20804;-63
2023/03/19 00:31:14;;;;;;;3.80;2.20;;;;;;;;;;5023207;28;21059;-63
2023/03/19 00:33:40;;;;;;;2.93;2.50;;;;;;;;;;5008990;28;20654;-63
2023/03/19 00:36:06;;;;;;;6.13;3.13;;;;;;;;;;5031196;28;20972;-64
2023/03/19 00:38:34;;;;;;;3.60;2.50;;;;;;;;;;5014560;28;20482;-63
2023/03/19 00:41:00;;;;;;;6.47;3.20;;;;;;;;;;5002493;28;20784;-62
2023/03/19 00:43:26;;;;;;;6.50;2.93;;;;;;;;;;5025963;28;20458;-64
2023/03/19 00:45:52;;;;;;;3.83;2.70;;;;;;;;;;5020921;28;20422;-63
2023/03/19 00:48:19;;;;;;;3.63;2.80;;;;;;;;;;5022679;28;20810;-62
2023/03/19 00:50:45;;;;;;;3.43;1.90;;;;;;;;;;4998988;28;20553;-65
2023/03/19 00:53:11;;;;;;;3.43;2.53;;;;;;;;;;5024229;28;20463;-64
2023/03/19 00:55:36;;;;;;;3.80;2.30;;;;;;;;;;5000016;28;20453;-64
2023/03/19 00:58:02;;;;;;;4.90;2.63;;;;;;;;;;5028124;28;20494;-61
2023/03/19 01:00:28;;;;;;;4.97;3.13;;;;;;;;;;5001470;28;20434;-61
2023/03/19 01:02:54;;;;;;;5.03;2.70;;;;;;;;;;5028421;28;20520;-61
2023/03/19 01:05:20;;;;;;;5.80;3.30;;;;;;;;;;4982691;28;20457;-62
2023/03/19 01:07:46;;;;;;;5.73;3.13;;;;;;;;;;5026617;28;20439;-63
2023/03/19 01:10:12;;;;;;;3.40;2.40;;;;;;;;;;5023307;28;20530;-64
2023/03/19 01:12:38;;;;;;;5.73;3.57;;;;;;;;;;5014648;28;20279;-63
2023/03/19 01:15:05;;;;;;;2.93;2.10;;;;;;;;;;4985904;28;20444;-61
2023/03/19 01:17:32;;;;;;;6.40;2.87;;;;;;;;;;5016177;28;20525;-63
2023/03/19 01:19:58;;;;;;;5.40;2.40;;;;;;;;;;4998084;28;20446;-62
2023/03/19 01:22:25;;;;;;;5.83;2.20;;;;;;;;;;5032193;28;20439;-62
2023/03/19 01:24:51;;;;;;;7.47;3.00;;;;;;;;;;5000339;28;20737;-62
2023/03/19 01:27:16;;;;;;;3.80;2.53;;;;;;;;;;5010931;28;20451;-64
2023/03/19 01:29:42;;;;;;;3.67;2.87;;;;;;;;;;5019098;28;20429;-65
2023/03/19 01:32:08;;;;;;;3.70;2.57;;;;;;;;;;4996888;28;20263;-64
2023/03/19 01:34:35;;;;;;;3.90;2.80;;;;;;;;;;5023246;28;20451;-62
2023/03/19 01:37:02;;;;;;;3.30;2.27;;;;;;;;;;4973061;28;20475;-62
2023/03/19 01:39:28;;;;;;;7.33;2.67;;;;;;;;;;5024772;28;20522;-63
2023/03/19 01:41:54;;;;;;;3.07;2.00;;;;;;;;;;5017807;28;20446;-63
2023/03/19 01:44:24;;;;;;;3.67;2.37;;;;;;;;;;5023253;28;21081;-64
2023/03/19 01:46:50;;;;;;;6.50;1.90;;;;;;;;;;4991638;28;20453;-63
2023/03/19 01:49:16;;;;;;;5.10;2.30;;;;;;;;;;5021682;28;20428;-61
2023/03/19 01:51:43;;;;;;;3.63;1.80;;;;;;;;;;5003082;28;20481;-63
2023/03/19 01:54:11;;;;;;;4.43;2.10;;;;;;;;;;5023030;28;21020;-62
2023/03/19 01:56:37;;;;;;;3.20;2.13;;;;;;;;;;5003052;28;20432;-64
2023/03/19 01:59:08;;;;;;;2.63;1.73;;;;;;;;;;5012418;28;20478;-64
2023/03/19 02:01:35;;;;;;;2.70;2.40;;;;;;;;;;5005618;28;20514;-63
2023/03/19 02:04:01;;;;;;;2.67;1.97;;;;;;;;;;5014083;28;20454;-62
2023/03/19 02:06:57;;;;;;;4.40;2.10;;;;;;;;;;5013725;28;20450;-64
2023/03/19 02:09:25;;;;;;;3.37;2.47;;;;;;;;;;4997014;28;20811;-62
2023/03/19 02:11:51;;;;;;;3.83;2.17;;;;;;;;;;5023436;28;20427;-63
2023/03/19 02:14:17;;;;;;;3.23;2.07;;;;;;;;;;5017354;28;20457;-63
2023/03/19 02:16:43;;;;;;;4.03;2.30;;;;;;;;;;5019427;28;20427;-60
2023/03/19 02:19:09;;;;;;;2.67;2.40;;;;;;;;;;4992087;28;20590;-58
2023/03/19 02:21:35;;;;;;;4.27;2.20;;;;;;;;;;5019453;28;20450;-61
2023/03/19 02:24:07;;;;;;;3.30;2.40;;;;;;;;;;4991928;28;20463;-62
2023/03/19 02:26:33;;;;;;;4.03;3.30;;;;;;;;;;5021647;28;20500;-60
2023/03/19 02:28:59;;;;;;;4.37;2.60;;;;;;;;;;4990291;28;20459;-59
2023/03/19 02:31:26;;;;;;;4.77;3.20;;;;;;;;;;5021717;28;20914;-59
2023/03/19 02:34:03;;;;;;;3.27;2.97;;;;;;;;;;4993295;28;20432;-59
2023/03/19 02:36:31;;;;;;;2.83;2.53;;;;;;;;;;4993372;28;20470;-59
2023/03/19 02:38:57;;;;;;;3.63;2.90;;;;;;;;;;5025071;28;20486;-60
2023/03/19 02:41:23;;;;;;;3.20;2.87;;;;;;;;;;4991166;28;20488;-59
2023/03/19 02:43:50;;;;;;;4.97;2.63;;;;;;;;;;5015500;28;20540;-60
2023/03/19 02:46:16;;;;;;;4.13;3.03;;;;;;;;;;5021848;28;20446;-59
2023/03/19 02:48:42;;;;;;;3.77;2.90;;;;;;;;;;5016762;28;20439;-60
2023/03/19 02:51:08;;;;;;;6.37;3.37;;;;;;;;;;5013887;28;20672;-60
2023/03/19 02:53:35;;;;;;;3.40;2.93;;;;;;;;;;5015323;28;20911;-60
2023/03/19 02:56:01;;;;;;;3.83;3.20;;;;;;;;;;5024693;28;20439;-60
2023/03/19 02:58:27;;;;;;;7.67;3.77;;;;;;;;;;5005242;28;20474;-60
2023/03/19 03:00:53;;;;;;;9.30;3.63;;;;;;;;;;5017360;28;20995;-60
2023/03/19 03:03:19;;;;;;;4.10;3.40;;;;;;;;;;5001505;28;20455;-60
2023/03/19 03:05:45;;;;;;;5.07;3.50;;;;;;;;;;5024313;28;20434;-60
2023/03/19 03:08:11;;;;;;;4.10;3.03;;;;;;;;;;4995835;28;20490;-60
2023/03/19 03:10:37;;;;;;;4.07;2.77;;;;;;;;;;5023646;28;20459;-62
2023/03/19 03:13:04;;;;;;;5.47;2.93;;;;;;;;;;4988330;28;20439;-61
2023/03/19 03:15:30;;;;;;;4.53;3.47;;;;;;;;;;5023760;28;20447;-60
2023/03/19 03:17:56;;;;;;;4.03;3.33;;;;;;;;;;4995973;28;20472;-59
2023/03/19 03:20:22;;;;;;;5.07;3.73;;;;;;;;;;5026563;28;20454;-59
2023/03/19 03:22:48;;;;;;;8.60;3.40;;;;;;;;;;5026941;28;21710;-60
2023/03/19 03:25:16;;;;;;;2.87;2.50;;;;;;;;;;5019320;28;20607;-60
2023/03/19 03:27:42;;;;;;;4.10;3.00;;;;;;;;;;4989406;28;20458;-60
2023/03/19 03:30:09;;;;;;;5.30;3.07;;;;;;;;;;5024650;28;20634;-61
2023/03/19 03:32:36;;;;;;;9.50;4.60;;;;;;;;;;4997939;28;20827;-59
2023/03/19 03:35:02;;;;;;;3.70;3.30;;;;;;;;;;5026718;28;20434;-60
2023/03/19 03:37:28;;;;;;;5.13;2.73;;;;;;;;;;4998569;28;20459;-60
2023/03/19 03:39:54;;;;;;;4.23;3.33;;;;;;;;;;5024594;28;20447;-60
2023/03/19 03:42:32;;;;;;;5.33;3.47;;;;;;;;;;5016639;28;20461;-63
2023/03/19 03:44:58;;;;;;;3.50;2.70;;;;;;;;;;4999160;28;20501;-61
2023/03/19 03:47:24;;;;;;;4.10;3.20;;;;;;;;;;5020686;28;21147;-60
2023/03/19 03:49:50;;;;;;;3.57;2.70;;;;;;;;;;4994323;28;20462;-59
2023/03/19 03:52:16;;;;;;;4.93;3.07;;;;;;;;;;5023218;28;20511;-61
2023/03/19 03:54:42;;;;;;;4.53;3.07;;;;;;;;;;5017527;28;20507;-60
2023/03/19 03:57:08;;;;;;;4.27;3.13;;;;;;;;;;5017551;28;20936;-57
2023/03/19 03:59:35;;;;;;;3.00;2.70;;;;;;;;;;4995068;28;20451;-59
2023/03/19 04:02:00;;;;;;;4.23;3.00;;;;;;;;;;5023139;28;20459;-61
2023/03/19 04:04:26;;;;;;;5.20;4.10;;;;;;;;;;4999794;28;20574;-61
2023/03/19 04:06:52;;;;;;;4.60;3.60;;;;;;;;;;5025217;28;20235;-61
2023/03/19 04:09:18;;;;;;;4.17;3.30;;;;;;;;;;4994874;28;20537;-61
2023/03/19 04:11:44;;;;;;;4.63;3.43;;;;;;;;;;5026199;28;20445;-60
2023/03/19 04:14:10;;;;;;;4.67;3.23;;;;;;;;;;4989882;28;21001;-60
2023/03/19 04:16:37;;;;;;;4.20;3.23;;;;;;;;;;5021911;28;20443;-60
2023/03/19 04:19:03;;;;;;;6.83;3.97;;;;;;;;;;4999704;28;21928;-59
2023/03/19 04:21:30;;;;;;;5.37;3.80;;;;;;;;;;5019487;28;20442;-57
2023/03/19 04:23:56;;;;;;;4.27;3.27;;;;;;;;;;5020691;28;20444;-61
2023/03/19 04:26:22;;;;;;;3.63;2.73;;;;;;;;;;5022302;28;20793;-61
2023/03/19 04:28:49;;;;;;;4.67;3.50;;;;;;;;;;5008643;28;20514;-60
2023/03/19 04:31:16;;;;;;;4.27;3.60;;;;;;;;;;5011021;28;20443;-61
2023/03/19 04:33:42;;;;;;;4.73;3.30;;;;;;;;;;5014648;28;20432;-60
2023/03/19 04:36:08;;;;;;;3.67;2.90;;;;;;;;;;5006314;28;20455;-60
2023/03/19 04:38:34;;;;;;;6.00;3.40;;;;;;;;;;4992202;28;21011;-62
2023/03/19 04:41:00;;;;;;;5.53;3.80;;;;;;;;;;5022529;28;20442;-62
2023/03/19 04:43:26;;;;;;;3.77;3.33;;;;;;;;;;4995800;28;20446;-60
2023/03/19 04:45:52;;;;;;;8.20;3.07;;;;;;;;;;4992525;28;20439;-60
2023/03/19 04:48:18;;;;;;;7.87;3.37;;;;;;;;;;5038398;28;20439;-62
2023/03/19 04:50:46;;;;;;;4.00;3.10;;;;;;;;;;5001694;28;22873;-60
2023/03/19 04:53:11;;;;;;;6.00;3.30;;;;;;;;;;5033791;28;20940;-61
2023/03/19 04:55:38;;;;;;;3.80;3.20;;;;;;;;;;5007126;28;20554;-61
2023/03/19 04:58:04;;;;;;;3.87;2.80;;;;;;;;;;5011557;28;20506;-61
2023/03/19 05:00:31;;;;;;;3.90;3.07;;;;;;;;;;5012244;28;20486;-62
2023/03/19 05:02:57;;;;;;;6.60;3.17;;;;;;;;;;5008372;28;21365;-62
2023/03/19 05:05:23;;;;;;;6.60;3.50;;;;;;;;;;5008399;28;20527;-63
2023/03/19 05:07:49;;;;;;;3.97;3.43;;;;;;;;;;5002504;28;20436;-63
2023/03/19 05:10:15;;;;;;;3.33;2.40;;;;;;;;;;5021039;28;20446;-62
2023/03/19 05:12:41;;;;;;;3.33;2.83;;;;;;;;;;5015039;28;20197;-64
2023/03/19 05:15:29;;;;;;;4.23;3.13;;;;;;;;;;5021111;28;20485;-61
2023/03/19 05:18:03;;;;;;;5.47;2.60;;;;;;;;;;4961274;28;20481;-60
2023/03/19 05:20:29;;;;;;;4.73;3.13;;;;;;;;;;5023807;28;20428;-57
2023/03/19 05:22:55;;;;;;;4.50;3.30;;;;;;;;;;5015448;28;20455;-60
2023/03/19 05:25:21;;;;;;;3.73;3.40;;;;;;;;;;5018879;28;20497;-59
2023/03/19 05:27:47;;;;;;;3.03;2.50;;;;;;;;;;4992696;28;20435;-60
2023/03/19 05:30:13;;;;;;;4.47;3.17;;;;;;;;;;5021483;28;20435;-59
2023/03/19 05:32:39;;;;;;;5.00;2.57;;;;;;;;;;4993071;28;20986;-60
2023/03/19 05:35:05;;;;;;;3.20;2.53;;;;;;;;;;5023948;28;20527;-60
2023/03/19 05:37:32;;;;;;;4.50;2.77;;;;;;;;;;4992748;28;20482;-59
2023/03/19 05:39:58;;;;;;;4.00;2.50;;;;;;;;;;5024196;28;20462;-58
2023/03/19 05:42:24;;;;;;;3.60;3.17;;;;;;;;;;4989704;28;20439;-57
2023/03/19 05:44:50;;;;;;;3.40;2.50;;;;;;;;;;5023705;28;20196;-57
2023/03/19 05:47:16;;;;;;;2.50;2.30;;;;;;;;;;4982334;28;20782;-59
2023/03/19 05:49:42;;;;;;;6.10;2.93;;;;;;;;;;5015490;28;20177;-59
2023/03/19 05:52:08;;;;;;;3.00;2.50;;;;;;;;;;5019538;28;20565;-57
2023/03/19 05:54:34;;;;;;;4.80;2.97;;;;;;;;;;5035615;28;20466;-59
2023/03/19 05:57:01;;;;;;;4.40;3.13;;;;;;;;;;5012119;28;20435;-58
2023/03/19 05:59:27;;;;;;;3.60;2.80;;;;;;;;;;4998996;28;20541;-59
2023/03/19 06:01:53;;;;;;;3.60;3.13;;;;;;;;;;5025284;28;20435;-57
2023/03/19 06:04:19;;;;;;;4.13;3.23;;;;;;;;;;5004310;28;20451;-59
2023/03/19 06:06:46;;;;;;;3.67;2.60;;;;;;;;;;5025502;28;20409;-58
2023/03/19 06:09:12;;;;;;;5.03;2.80;;;;;;;;;;4997034;28;20458;-58
2023/03/19 06:11:39;;;;;;;4.00;2.60;;;;;;;;;;5027846;28;20476;-58
2023/03/19 06:14:05;;;;;;;5.00;2.77;;;;;;;;;;5027276;28;20529;-59
2023/03/19 06:16:31;;;;;;;4.00;2.10;;;;;;;;;;5025634;28;21142;-58
2023/03/19 06:18:57;;;;;;;3.47;2.33;;;;;;;;;;4999277;28;20494;-59
2023/03/19 06:21:28;;;;;;;3.43;2.40;;;;;;;;;;5024027;28;20493;-60
2023/03/19 06:23:54;;;;;;;3.33;2.10;;;;;;;;;;5017204;28;20447;-59
2023/03/19 06:26:20;;;;;;;2.90;2.33;;;;;;;;;;5024865;28;20442;-58
2023/03/19 06:28:46;;;;;;;2.60;2.20;;;;;;;;;;4996296;28;20443;-59
2023/03/19 06:31:12;;;;;;;2.63;2.40;;;;;;;;;;5021729;28;20430;-59
2023/03/19 06:33:38;;;;;;;3.13;2.37;;;;;;;;;;5040470;28;20439;-59
2023/03/19 06:36:04;;;;;;;3.20;2.90;;;;;;;;;;5001451;28;20438;-58
2023/03/19 06:38:30;;;;;;;2.90;2.20;;;;;;;;;;5027098;28;20876;-56
2023/03/19 06:40:56;;;;;;;3.20;2.30;;;;;;;;;;4996248;28;20465;-56
2023/03/19 06:43:22;;;;;;;4.37;2.37;;;;;;;;;;5023155;28;20443;-55
2023/03/19 06:45:48;;;;;;;3.73;2.37;;;;;;;;;;4990724;28;20533;-55
2023/03/19 06:48:14;;;;;;;5.77;2.37;;;;;;;;;;5030910;28;20439;-56
2023/03/19 06:50:50;;;;;;;2.20;2.00;;;;;;;;;;5014116;28;20470;-56
2023/03/19 06:53:17;;;;;;;3.27;2.00;;;;;;;;;;4995819;28;20932;-56
2023/03/19 06:55:45;;;;;;;3.47;2.37;;;;;;;;;;5028254;28;20423;-55
2023/03/19 06:58:11;;;;;;;2.10;1.73;;;;;;;;;;5025468;28;20475;-56
2023/03/19 07:00:37;;;;;;;2.40;2.13;;;;;;;;;;5027325;28;21165;-55
2023/03/19 07:03:03;;;;;;;2.30;1.60;;;;;;;;;;4997912;28;20439;-57
2023/03/19 07:05:29;;;;;;;2.50;1.83;;;;;;;;;;5025679;28;20428;-56
2023/03/19 07:07:55;;;;;;;3.80;1.93;;;;;;;;;;5002588;28;20481;-56
2023/03/19 07:10:21;;;;;;;2.70;2.30;;;;;;;;;;5029375;28;20415;-56
2023/03/19 07:12:47;;;;;;;2.70;1.73;;;;;;;;;;4999724;28;20454;-56
2023/03/19 07:15:14;;;;;;;5.97;2.07;;;;;;;;;;5029181;28;20513;-55
2023/03/19 07:17:40;;;;;;;4.33;2.20;;;;;;;;;;5019570;28;21034;-57
2023/03/19 07:20:06;;;;;;;3.30;2.40;;;;;;;;;;5024452;28;20431;-58
2023/03/19 07:22:32;;;;;;;2.67;2.10;;;;;;;;;;4998399;28;20508;-57
2023/03/19 07:24:58;;;;;;;2.53;2.27;;;;;;;;;;5026084;28;20526;-57
2023/03/19 07:27:24;;;;;;;2.87;2.57;;;;;;;;;;4996216;28;20184;-56
2023/03/19 07:29:50;;;;;;;3.27;2.60;;;;;;;;;;5011365;28;20446;-55
2023/03/19 07:32:16;;;;;;;4.20;2.20;;;;;;;;;;5000239;28;20654;-55
2023/03/19 07:34:42;;;;;;;3.37;2.60;;;;;;;;;;5019385;28;20481;-55
2023/03/19 07:37:09;;;;;;;3.70;2.13;;;;;;;;;;5017456;28;20542;-55
2023/03/19 07:39:36;;;;;;;3.53;2.20;;;;;;;;;;5015202;28;21248;-55
2023/03/19 07:42:02;;;;;;;2.50;1.87;;;;;;;;;;4997190;28;20435;-56
2023/03/19 07:44:28;;;;;;;3.50;2.00;;;;;;;;;;4981401;28;21249;-55
2023/03/19 07:46:54;;;;;;;3.73;1.97;;;;;;;;;;5020742;28;20505;-57
2023/03/19 07:49:20;;;;;;;4.00;1.87;;;;;;;;;;4991196;28;20468;-57
2023/03/19 07:51:46;;;;;;;3.63;2.40;;;;;;;;;;5021641;28;20565;-56
2023/03/19 07:54:22;;;;;;;2.60;1.97;;;;;;;;;;5029606;28;20522;-55
2023/03/19 07:56:48;;;;;;;2.93;1.77;;;;;;;;;;4987207;28;20504;-56
2023/03/19 07:59:14;;;;;;;2.63;1.80;;;;;;;;;;5021983;28;20471;-57
2023/03/19 08:01:40;;;;;;;4.17;2.00;;;;;;;;;;4992019;28;20821;-56
2023/03/19 08:04:07;;;;;;;2.13;1.73;;;;;;;;;;4998355;28;20401;-57
2023/03/19 08:06:33;;;;;;;2.53;1.90;;;;;;;;;;5003846;28;20963;-55
2023/03/19 08:08:59;;;;;;;2.83;2.13;;;;;;;;;;5011989;28;20487;-57
2023/03/19 08:11:25;;;;;;;3.13;1.33;;;;;;;;;;5004620;28;20431;-56
2023/03/19 08:13:51;;;;;;;2.73;2.13;;;;;;;;;;5013781;28;20447;-57
2023/03/19 08:16:17;;;;;;;3.60;2.47;;;;;;;;;;4999148;28;20471;-55
2023/03/19 08:18:43;;;;;;;4.00;1.93;;;;;;;;;;5019908;28;20960;-55
2023/03/19 08:21:09;;;;;;;2.47;1.60;;;;;;;;;;5001184;28;21088;-55
2023/03/19 08:24:07;;;;;;;11.53;2.23;;;;;;;;;;5023242;28;21016;-57
2023/03/19 08:26:50;;;;;;;2.47;1.70;;;;;;;;;;5001891;28;20450;-55
2023/03/19 08:29:16;;;;;;;3.37;1.60;;;;;;;;;;5027060;28;20440;-56
2023/03/19 08:31:42;;;;;;;2.60;1.70;;;;;;;;;;4993358;28;20459;-55
2023/03/19 08:34:09;;;;;;;2.63;1.73;;;;;;;;;;5024941;28;20439;-54
2023/03/19 08:36:35;;;;;;;3.60;2.10;;;;;;;;;;4993961;28;20469;-56
2023/03/19 08:39:01;;;;;;;3.40;1.70;;;;;;;;;;5021351;28;20478;-57
2023/03/19 08:41:27;;;;;;;3.23;2.10;;;;;;;;;;5011012;28;20493;-56
2023/03/19 08:43:53;;;;;;;3.50;2.90;;;;;;;;;;5018653;28;20450;-56
2023/03/19 08:46:19;;;;;;;3.47;1.70;;;;;;;;;;4990191;28;20439;-56
2023/03/19 08:48:45;;;;;;;8.13;1.93;;;;;;;;;;5023844;28;20460;-55
2023/03/19 08:51:11;;;;;;;2.27;1.87;;;;;;;;;;5019191;28;20532;-55
2023/03/19 08:53:37;;;;;;;2.80;2.00;;;;;;;;;;5016130;28;20781;-55
2023/03/19 08:56:04;;;;;;;2.87;1.70;;;;;;;;;;4992085;28;20530;-56
2023/03/19 08:58:30;;;;;;;3.37;1.53;;;;;;;;;;5023390;28;20636;-55
2023/03/19 09:01:03;;;;;;;2.97;1.90;;;;;;;;;;4988706;28;20443;-56
2023/03/19 09:03:29;;;;;;;3.70;2.07;;;;;;;;;;5022217;28;20441;-55
2023/03/19 09:05:58;;;;;;;2.63;1.87;;;;;;;;;;5000149;28;20435;-55
2023/03/19 09:08:24;;;;;;;2.30;1.73;;;;;;;;;;5023750;28;20469;-56
2023/03/19 09:10:50;;;;;;;2.20;1.60;;;;;;;;;;5017448;28;20508;-59
2023/03/19 09:13:16;;;;;;;2.43;1.77;;;;;;;;;;5024158;28;20520;-55
2023/03/19 09:15:42;;;;;;;4.53;1.93;;;;;;;;;;4995413;28;20447;-56
2023/03/19 09:18:08;;;;;;;2.70;1.80;;;;;;;;;;5040737;28;20479;-54
2023/03/19 09:20:34;;;;;;;6.33;1.93;;;;;;;;;;5009070;28;20497;-56
2023/03/19 09:23:00;;;;;;;2.63;2.13;;;;;;;;;;5026301;28;20522;-56
2023/03/19 09:25:26;;;;;;;5.40;1.90;;;;;;;;;;5002251;28;20731;-56
2023/03/19 09:27:52;;;;;;;2.23;1.83;;;;;;;;;;5008714;28;20451;-56
2023/03/19 09:30:19;;;;;;;3.83;2.17;;;;;;;;;;4997836;28;21086;-57
2023/03/19 09:32:45;;;;;;;2.43;1.80;;;;;;;;;;4994981;28;20968;-56
2023/03/19 09:35:11;;;;;;;2.37;1.63;;;;;;;;;;5014131;28;20478;-57
2023/03/19 09:37:37;;;;;;;3.80;2.20;;;;;;;;;;4991607;28;20489;-56
2023/03/19 09:40:04;;;;;;;5.43;1.83;;;;;;;;;;5021806;28;20505;-56
2023/03/19 09:42:30;;;;;;;2.50;1.70;;;;;;;;;;4977678;28;20443;-56
2023/03/19 09:44:56;;;;;;;2.60;2.20;;;;;;;;;;5019540;28;20463;-56
2023/03/19 09:47:25;;;;;;;3.20;2.23;;;;;;;;;;5011337;28;20489;-56
2023/03/19 09:49:51;;;;;;;2.53;1.93;;;;;;;;;;5025125;28;20439;-55
2023/03/19 09:52:44;;;;;;;2.77;1.93;;;;;;;;;;4992102;28;20446;-59
2023/03/19 09:58:21;;;;;;;3.07;1.57;;;;;;;;;;4964683;28;20489;-56
2023/03/19 10:00:49;;;;;;;7.67;2.07;;;;;;;;;;5013013;28;20433;-57
2023/03/19 10:03:15;;;;;;;5.60;2.10;;;;;;;;;;5007818;28;20451;-56
2023/03/19 10:05:45;;;;;;;4.00;1.83;;;;;;;;;;5013156;28;20424;-55
2023/03/19 10:08:25;;;;;;;2.60;1.97;;;;;;;;;;4985866;28;20829;-55
2023/03/19 10:10:56;;;;;;;4.80;2.10;;;;;;;;;;5018460;28;20449;-56
2023/03/19 10:13:32;;;;;;;5.00;1.80;;;;;;;;;;5032726;28;20435;-57
2023/03/19 10:15:59;;;;;;;3.60;1.87;;;;;;;;;;5021533;28;21145;-58
2023/03/19 10:18:30;;;;;;;2.97;1.63;;;;;;;;;;4986302;28;20490;-57
2023/03/19 10:21:02;;;;;;;4.10;2.20;;;;;;;;;;5009012;28;20430;-57
2023/03/19 10:23:42;;;;;;;3.13;1.63;;;;;;;;;;4987809;28;20458;-56
2023/03/19 10:26:12;;;;;;;7.80;2.47;;;;;;;;;;5007969;28;20517;-56
2023/03/19 10:28:38;;;;;;;3.40;2.03;;;;;;;;;;4980527;28;20581;-57
2023/03/19 10:31:23;;;;;;;2.63;1.73;;;;;;;;;;5021182;28;20431;-57
2023/03/19 10:33:49;;;;;;;2.90;1.87;;;;;;;;;;4992469;28;20430;-56
2023/03/19 10:36:15;;;;;;;2.30;1.60;;;;;;;;;;5015874;28;20453;-58
2023/03/19 10:38:42;;;;;;;4.20;2.00;;;;;;;;;;5015819;28;20196;-56
2023/03/19 10:41:26;;;;;;;3.87;2.00;;;;;;;;;;4991313;28;20201;-55
2023/03/19 10:43:54;;;;;;;3.47;2.00;;;;;;;;;;5007879;28;20434;-55
2023/03/19 10:46:20;;;;;;;3.90;2.00;;;;;;;;;;5000909;28;21320;-56
2023/03/19 10:48:47;;;;;;;3.90;1.90;;;;;;;;;;5008169;28;20473;-56
2023/03/19 10:51:13;;;;;;;2.53;1.50;;;;;;;;;;4987137;28;20435;-57
2023/03/19 10:53:40;;;;;;;2.43;1.77;;;;;;;;;;5014238;28;20466;-57
2023/03/19 10:56:09;;;;;;;4.47;2.40;;;;;;;;;;4979957;28;20498;-57
2023/03/19 10:58:40;;;;;;;4.50;2.23;;;;;;;;;;5019904;28;20506;-54
2023/03/19 11:01:07;;;;;;;2.97;1.80;;;;;;;;;;4984708;28;20470;-57
2023/03/19 11:03:37;;;;;;;3.87;2.10;;;;;;;;;;5011805;28;20994;-56
2023/03/19 11:06:03;;;;;;;5.50;2.07;;;;;;;;;;5012522;28;20431;-56
2023/03/19 11:08:29;;;;;;;2.83;1.70;;;;;;;;;;5021041;28;20603;-56
2023/03/19 11:10:55;;;;;;;3.83;1.90;;;;;;;;;;5013082;28;23180;-57
2023/03/19 11:13:25;;;;;;;2.97;2.17;;;;;;;;;;5011043;28;21003;-58
2023/03/19 11:15:52;;;;;;;3.03;2.13;;;;;;;;;;4993390;28;20490;-57
2023/03/19 11:18:22;;;;;;;3.03;2.33;;;;;;;;;;4996001;28;20487;-56
2023/03/19 11:20:50;;;;;;;3.50;2.30;;;;;;;;;;4998603;28;20447;-56
2023/03/19 11:23:17;;;;;;;3.67;2.63;;;;;;;;;;5000415;28;20450;-57
2023/03/19 11:25:48;;;;;;;5.30;2.37;;;;;;;;;;5002133;28;20451;-55
2023/03/19 11:28:15;;;;;;;3.33;1.80;;;;;;;;;;4981907;28;20443;-56
2023/03/19 11:31:07;;;;;;;3.33;2.60;;;;;;;;;;5000876;28;21300;-56
2023/03/19 11:33:58;;;;;;;3.60;2.10;;;;;;;;;;4979259;28;20578;-55
2023/03/19 11:36:36;;;;;;;5.17;1.90;;;;;;;;;;4993522;28;20451;-56
2023/03/19 11:39:12;;;;;;;3.00;2.40;;;;;;;;;;5039712;28;20475;-57
2023/03/19 11:41:56;;;;;;;3.93;2.10;;;;;;;;;;5017191;28;20435;-57
2023/03/19 11:44:22;;;;;;;2.10;1.60;;;;;;;;;;5025920;28;20462;-57
2023/03/19 11:47:00;;;;;;;2.93;2.10;;;;;;;;;;4987558;28;20958;-57
2023/03/19 11:49:30;;;;;;;5.10;2.37;;;;;;;;;;5003741;28;20546;-56
2023/03/19 11:52:01;;;;;;;3.33;2.40;;;;;;;;;;4985840;28;20455;-54
2023/03/19 11:54:29;;;;;;;4.30;2.20;;;;;;;;;;5016921;28;20479;-57
2023/03/19 11:56:59;;;;;;;3.60;2.23;;;;;;;;;;5013961;28;20941;-55
2023/03/19 11:59:32;;;;;;;4.40;2.80;;;;;;;;;;5024624;28;20483;-57
2023/03/19 12:02:16;;;;;;;4.37;2.40;;;;;;;;;;4984474;28;20435;-57
2023/03/19 12:04:49;;;;;;;3.13;2.57;;;;;;;;;;5008871;28;20434;-56
2023/03/19 12:07:31;;;;;;;3.47;2.60;;;;;;;;;;4971131;28;21172;-56
2023/03/19 12:10:16;;;;;;;4.00;2.40;;;;;;;;;;5019204;28;20900;-54
2023/03/19 12:12:51;;;;;;;4.87;2.77;;;;;;;;;;4984515;28;20439;-56
2023/03/19 12:15:41;;;;;;;4.40;2.43;;;;;;;;;;5008963;28;20437;-58
2023/03/19 12:18:07;;;;;;;2.97;2.47;;;;;;;;;;4987280;28;20501;-57
2023/03/19 12:20:52;;;;;;;6.17;3.20;;;;;;;;;;5017373;28;20439;-56
2023/03/19 12:23:39;;;;;;;5.17;2.60;;;;;;;;;;4982990;28;21015;-57
2023/03/19 12:26:21;;;;;;;6.97;3.23;;;;;;;;;;5021622;28;20487;-57
2023/03/19 12:28:50;;;;;;;2.60;2.20;;;;;;;;;;5016657;28;20436;-57
2023/03/19 12:31:18;;;;;;;3.53;2.57;;;;;;;;;;5017828;28;20474;-56
2023/03/19 12:33:46;;;;;;;6.20;2.67;;;;;;;;;;4981209;28;20551;-56
2023/03/19 12:36:13;;;;;;;5.23;2.90;;;;;;;;;;5007648;28;20436;-57
2023/03/19 12:38:40;;;;;;;4.77;2.53;;;;;;;;;;5014227;28;20504;-55
2023/03/19 12:41:09;;;;;;;5.10;2.60;;;;;;;;;;5021049;28;20442;-57
2023/03/19 12:43:55;;;;;;;6.90;2.33;;;;;;;;;;4989850;28;20936;-56
2023/03/19 12:46:31;;;;;;;4.17;2.40;;;;;;;;;;5015362;28;20435;-57
2023/03/19 12:49:00;;;;;;;4.80;2.30;;;;;;;;;;5020577;28;20835;-56
2023/03/19 12:51:27;;;;;;;8.33;1.87;;;;;;;;;;5021080;28;20436;-57
2023/03/19 12:54:02;;;;;;;4.37;2.10;;;;;;;;;;4994700;28;20530;-56
2023/03/19 12:56:46;;;;;;;4.80;2.30;;;;;;;;;;5014090;28;20502;-56
2023/03/19 12:59:19;;;;;;;2.80;1.70;;;;;;;;;;5005636;28;20475;-56
2023/03/19 13:01:49;;;;;;;2.63;1.80;;;;;;;;;;5023879;28;21272;-55
2023/03/19 13:04:22;;;;;;;3.30;1.90;;;;;;;;;;5006616;28;20454;-55
2023/03/19 13:07:19;;;;;;;2.80;1.97;;;;;;;;;;5027531;28;20451;-59
2023/03/19 13:09:59;;;;;;;3.40;3.10;;;;;;;;;;4990284;28;20990;-58
2023/03/19 13:12:26;;;;;;;3.90;2.33;;;;;;;;;;5007927;28;21038;-57
2023/03/19 13:14:58;;;;;;;6.60;3.43;;;;;;;;;;4997730;28;20435;-61
2023/03/19 13:17:41;;;;;;;6.37;2.53;;;;;;;;;;5008393;28;20441;-59
2023/03/19 13:20:16;;;;;;;3.73;2.60;;;;;;;;;;5024415;28;20450;-58
2023/03/19 13:22:43;;;;;;;5.67;2.80;;;;;;;;;;5004718;28;20443;-58
2023/03/19 13:25:10;;;;;;;5.00;2.50;;;;;;;;;;5019329;28;20454;-57
2023/03/19 13:27:36;;;;;;;8.23;2.77;;;;;;;;;;5010347;28;20500;-56
2023/03/19 13:30:10;;;;;;;6.13;2.33;;;;;;;;;;5012920;28;20951;-58
2023/03/19 13:32:40;;;;;;;4.57;3.20;;;;;;;;;;5014725;28;20963;-59
2023/03/19 13:35:12;;;;;;;4.77;2.50;;;;;;;;;;5006691;28;20948;-58
2023/03/19 13:37:41;;;;;;;4.73;2.37;;;;;;;;;;5018159;28;20443;-57
2023/03/19 13:40:24;;;;;;;2.23;1.83;;;;;;;;;;4982413;28;20451;-58
2023/03/19 13:42:55;;;;;;;2.83;2.10;;;;;;;;;;5035667;28;20483;-57
2023/03/19 13:45:37;;;;;;;2.50;2.17;;;;;;;;;;5015265;28;20435;-57
2023/03/19 13:48:29;;;;;;;4.40;2.53;;;;;;;;;;5021896;28;20585;-57
2023/03/19 13:50:59;;;;;;;4.23;2.23;;;;;;;;;;4989848;28;20941;-57
2023/03/19 13:53:31;;;;;;;2.83;2.07;;;;;;;;;;5017694;28;21012;-57
2023/03/19 13:55:57;;;;;;;4.47;2.40;;;;;;;;;;4990980;28;20439;-57
2023/03/19 14:01:26;;;;;;;5.40;3.03;;;;;;;;;;5024604;28;20567;-58
2023/03/19 14:04:15;;;;;;;3.43;2.80;;;;;;;;;;5021846;28;20435;-56
2023/03/19 14:06:44;;;;;;;2.90;2.40;;;;;;;;;;5010179;28;20436;-57
2023/03/19 14:09:36;;;;;;;2.60;2.40;;;;;;;;;;5012649;28;20424;-59
2023/03/19 14:12:17;;;;;;;3.80;2.63;;;;;;;;;;5002424;28;20431;-57
2023/03/19 14:14:44;;;;;;;4.30;3.53;;;;;;;;;;5011800;28;20478;-57
2023/03/19 14:17:14;;;;;;;3.83;3.07;;;;;;;;;;5018857;28;20430;-57
2023/03/19 14:19:40;;;;;;;3.63;2.90;;;;;;;;;;4985754;28;20490;-58
2023/03/19 14:22:16;;;;;;;4.90;3.00;;;;;;;;;;5024178;28;20596;-57
2023/03/19 14:24:49;;;;;;;4.40;2.50;;;;;;;;;;4999957;28;20462;-56
2023/03/19 14:27:16;;;;;;;2.90;2.10;;;;;;;;;;5038126;28;20462;-54
2023/03/19 14:29:43;;;;;;;4.63;2.90;;;;;;;;;;5006204;28;20431;-57
2023/03/19 14:32:09;;;;;;;6.93;2.80;;;;;;;;;;4990070;28;20443;-57
2023/03/19 14:34:37;;;;;;;4.43;2.83;;;;;;;;;;5025669;28;20450;-57
2023/03/19 14:37:04;;;;;;;3.37;2.47;;;;;;;;;;5021527;28;20461;-58
2023/03/19 14:39:31;;;;;;;4.53;2.50;;;;;;;;;;5024758;28;20515;-56
2023/03/19 14:42:07;;;;;;;4.70;2.07;;;;;;;;;;4984979;28;20504;-57
2023/03/19 14:44:55;;;;;;;3.13;2.23;;;;;;;;;;5030204;28;20505;-57
2023/03/19 14:47:39;;;;;;;2.20;2.00;;;;;;;;;;4999329;28;20454;-57
2023/03/19 14:50:05;;;;;;;4.97;2.40;;;;;;;;;;5029265;28;20439;-58
2023/03/19 14:52:36;;;;;;;3.10;2.50;;;;;;;;;;5001578;28;20437;-57
2023/03/19 14:55:02;;;;;;;2.97;2.10;;;;;;;;;;5021323;28;20430;-57
2023/03/19 14:57:34;;;;;;;2.57;2.10;;;;;;;;;;5014423;28;20486;-57
2023/03/19 15:00:00;;;;;;;2.03;1.83;;;;;;;;;;5026651;28;20430;-57